sensor_id;sensor_type;location;lat;lon;timestamp;P1;durP1;ratioP1;P2;durP2;ratioP2
21034;SDS011;10676;50.848;3.272;2023-04-29T00:01:10;45.33;;;24.98;;
21034;SDS011;10676;50.848;3.272;2023-04-29T00:03:36;43.03;;;23.38;;
21034;SDS011;10676;50.848;3.272;2023-04-29T00:06:02;38.78;;;23.67;;
21034;SDS011;10676;50.848;3.272;2023-04-29T00:08:27;46.25;;;25.20;;
21034;SDS011;10676;50.848;3.272;2023-04-29T00:10:53;42.45;;;24.45;;
21034;SDS011;10676;50.848;3.272;2023-04-29T00:13:19;42.47;;;25.02;;
21034;SDS011;10676;50.848;3.272;2023-04-29T00:16:01;43.38;;;25.35;;
21034;SDS011;10676;50.848;3.272;2023-04-29T00:18:27;46.75;;;25.52;;
21034;SDS011;10676;50.848;3.272;2023-04-29T00:20:53;45.33;;;25.05;;
21034;SDS011;10676;50.848;3.272;2023-04-29T00:23:19;45.22;;;25.67;;
21034;SDS011;10676;50.848;3.272;2023-04-29T00:25:44;42.83;;;23.13;;
21034;SDS011;10676;50.848;3.272;2023-04-29T00:28:10;45.17;;;24.90;;
21034;SDS011;10676;50.848;3.272;2023-04-29T00:30:36;40.47;;;24.33;;
21034;SDS011;10676;50.848;3.272;2023-04-29T00:33:02;42.05;;;24.95;;
21034;SDS011;10676;50.848;3.272;2023-04-29T00:35:27;40.15;;;23.15;;
21034;SDS011;10676;50.848;3.272;2023-04-29T00:37:53;45.25;;;25.65;;
21034;SDS011;10676;50.848;3.272;2023-04-29T00:40:19;44.20;;;24.83;;
21034;SDS011;10676;50.848;3.272;2023-04-29T00:42:45;39.92;;;24.42;;
21034;SDS011;10676;50.848;3.272;2023-04-29T00:45:10;45.42;;;24.50;;
21034;SDS011;10676;50.848;3.272;2023-04-29T00:47:36;46.17;;;25.80;;
21034;SDS011;10676;50.848;3.272;2023-04-29T00:50:03;48.05;;;25.10;;
21034;SDS011;10676;50.848;3.272;2023-04-29T00:52:32;45.60;;;25.27;;
21034;SDS011;10676;50.848;3.272;2023-04-29T00:54:59;44.15;;;24.38;;
21034;SDS011;10676;50.848;3.272;2023-04-29T00:57:25;47.55;;;26.08;;
21034;SDS011;10676;50.848;3.272;2023-04-29T00:59:57;43.67;;;25.60;;
21034;SDS011;10676;50.848;3.272;2023-04-29T01:02:23;44.90;;;25.23;;
21034;SDS011;10676;50.848;3.272;2023-04-29T01:04:50;46.63;;;25.60;;
21034;SDS011;10676;50.848;3.272;2023-04-29T01:07:18;46.40;;;24.55;;
21034;SDS011;10676;50.848;3.272;2023-04-29T01:12:53;45.10;;;25.35;;
21034;SDS011;10676;50.848;3.272;2023-04-29T01:15:48;46.00;;;25.50;;
21034;SDS011;10676;50.848;3.272;2023-04-29T01:21:19;54.10;;;27.42;;
21034;SDS011;10676;50.848;3.272;2023-04-29T01:23:46;51.35;;;26.98;;
21034;SDS011;10676;50.848;3.272;2023-04-29T01:26:15;45.25;;;27.20;;
21034;SDS011;10676;50.848;3.272;2023-04-29T01:34:21;52.60;;;26.65;;
21034;SDS011;10676;50.848;3.272;2023-04-29T01:36:56;51.38;;;27.63;;
21034;SDS011;10676;50.848;3.272;2023-04-29T01:42:21;54.75;;;28.85;;
21034;SDS011;10676;50.848;3.272;2023-04-29T01:44:53;52.45;;;26.88;;
21034;SDS011;10676;50.848;3.272;2023-04-29T01:47:20;51.85;;;27.50;;
21034;SDS011;10676;50.848;3.272;2023-04-29T01:52:18;52.42;;;27.00;;
21034;SDS011;10676;50.848;3.272;2023-04-29T01:54:44;56.67;;;27.88;;
21034;SDS011;10676;50.848;3.272;2023-04-29T01:57:10;47.78;;;27.83;;
21034;SDS011;10676;50.848;3.272;2023-04-29T01:59:35;48.85;;;26.15;;
21034;SDS011;10676;50.848;3.272;2023-04-29T02:02:01;54.22;;;27.65;;
21034;SDS011;10676;50.848;3.272;2023-04-29T02:04:27;57.95;;;28.45;;
21034;SDS011;10676;50.848;3.272;2023-04-29T02:06:58;52.60;;;27.63;;
21034;SDS011;10676;50.848;3.272;2023-04-29T02:09:24;56.30;;;29.05;;
21034;SDS011;10676;50.848;3.272;2023-04-29T02:11:49;59.40;;;28.40;;
21034;SDS011;10676;50.848;3.272;2023-04-29T02:14:15;54.42;;;29.08;;
21034;SDS011;10676;50.848;3.272;2023-04-29T02:16:47;54.67;;;29.65;;
21034;SDS011;10676;50.848;3.272;2023-04-29T02:19:13;55.20;;;29.52;;
21034;SDS011;10676;50.848;3.272;2023-04-29T02:21:38;57.03;;;29.13;;
21034;SDS011;10676;50.848;3.272;2023-04-29T02:24:05;56.70;;;30.75;;
21034;SDS011;10676;50.848;3.272;2023-04-29T02:26:31;62.55;;;31.38;;
21034;SDS011;10676;50.848;3.272;2023-04-29T02:28:58;54.80;;;29.50;;
21034;SDS011;10676;50.848;3.272;2023-04-29T02:31:24;58.40;;;31.05;;
21034;SDS011;10676;50.848;3.272;2023-04-29T02:33:49;57.25;;;30.10;;
21034;SDS011;10676;50.848;3.272;2023-04-29T02:36:15;55.47;;;30.20;;
21034;SDS011;10676;50.848;3.272;2023-04-29T02:38:42;53.10;;;29.60;;
21034;SDS011;10676;50.848;3.272;2023-04-29T02:41:08;58.03;;;31.20;;
21034;SDS011;10676;50.848;3.272;2023-04-29T02:43:34;54.03;;;29.70;;
21034;SDS011;10676;50.848;3.272;2023-04-29T02:46:00;51.22;;;30.17;;
21034;SDS011;10676;50.848;3.272;2023-04-29T02:48:26;61.22;;;28.77;;
21034;SDS011;10676;50.848;3.272;2023-04-29T02:50:52;52.00;;;29.75;;
21034;SDS011;10676;50.848;3.272;2023-04-29T02:53:17;48.40;;;27.58;;
21034;SDS011;10676;50.848;3.272;2023-04-29T02:55:44;53.33;;;28.65;;
21034;SDS011;10676;50.848;3.272;2023-04-29T02:58:11;52.92;;;29.42;;
21034;SDS011;10676;50.848;3.272;2023-04-29T03:00:36;50.95;;;28.48;;
21034;SDS011;10676;50.848;3.272;2023-04-29T03:03:04;51.00;;;28.65;;
21034;SDS011;10676;50.848;3.272;2023-04-29T03:05:30;51.30;;;28.63;;
21034;SDS011;10676;50.848;3.272;2023-04-29T03:07:56;47.90;;;28.90;;
21034;SDS011;10676;50.848;3.272;2023-04-29T03:10:21;44.72;;;27.85;;
21034;SDS011;10676;50.848;3.272;2023-04-29T03:12:52;49.78;;;27.70;;
21034;SDS011;10676;50.848;3.272;2023-04-29T03:15:18;50.35;;;28.60;;
21034;SDS011;10676;50.848;3.272;2023-04-29T03:17:44;44.97;;;27.88;;
21034;SDS011;10676;50.848;3.272;2023-04-29T03:20:10;50.95;;;27.70;;
21034;SDS011;10676;50.848;3.272;2023-04-29T03:22:36;45.90;;;26.52;;
21034;SDS011;10676;50.848;3.272;2023-04-29T03:25:02;45.92;;;27.75;;
21034;SDS011;10676;50.848;3.272;2023-04-29T03:27:28;40.13;;;26.58;;
21034;SDS011;10676;50.848;3.272;2023-04-29T03:29:54;43.70;;;26.92;;
21034;SDS011;10676;50.848;3.272;2023-04-29T03:32:20;40.53;;;26.83;;
21034;SDS011;10676;50.848;3.272;2023-04-29T03:34:46;39.47;;;26.13;;
21034;SDS011;10676;50.848;3.272;2023-04-29T03:37:13;42.53;;;26.95;;
21034;SDS011;10676;50.848;3.272;2023-04-29T03:39:40;39.13;;;26.25;;
21034;SDS011;10676;50.848;3.272;2023-04-29T03:42:08;42.33;;;24.10;;
21034;SDS011;10676;50.848;3.272;2023-04-29T03:44:34;36.78;;;24.13;;
21034;SDS011;10676;50.848;3.272;2023-04-29T03:47:00;33.50;;;22.77;;
21034;SDS011;10676;50.848;3.272;2023-04-29T03:49:26;31.42;;;22.00;;
21034;SDS011;10676;50.848;3.272;2023-04-29T03:51:52;36.10;;;21.92;;
21034;SDS011;10676;50.848;3.272;2023-04-29T03:54:18;29.20;;;21.17;;
21034;SDS011;10676;50.848;3.272;2023-04-29T03:56:44;36.35;;;21.70;;
21034;SDS011;10676;50.848;3.272;2023-04-29T03:59:09;30.25;;;19.25;;
21034;SDS011;10676;50.848;3.272;2023-04-29T04:01:40;29.63;;;20.27;;
21034;SDS011;10676;50.848;3.272;2023-04-29T04:04:05;28.50;;;20.67;;
21034;SDS011;10676;50.848;3.272;2023-04-29T04:06:31;31.35;;;20.10;;
21034;SDS011;10676;50.848;3.272;2023-04-29T04:08:57;31.00;;;19.92;;
21034;SDS011;10676;50.848;3.272;2023-04-29T04:11:22;34.92;;;20.52;;
21034;SDS011;10676;50.848;3.272;2023-04-29T04:13:48;29.17;;;20.30;;
21034;SDS011;10676;50.848;3.272;2023-04-29T04:16:14;34.40;;;21.83;;
21034;SDS011;10676;50.848;3.272;2023-04-29T04:18:40;29.75;;;20.17;;
21034;SDS011;10676;50.848;3.272;2023-04-29T04:21:06;35.38;;;21.38;;
21034;SDS011;10676;50.848;3.272;2023-04-29T04:26:07;34.83;;;21.23;;
21034;SDS011;10676;50.848;3.272;2023-04-29T04:28:33;34.20;;;21.73;;
21034;SDS011;10676;50.848;3.272;2023-04-29T04:30:59;30.17;;;21.38;;
21034;SDS011;10676;50.848;3.272;2023-04-29T04:33:25;28.63;;;21.55;;
21034;SDS011;10676;50.848;3.272;2023-04-29T04:35:51;29.63;;;21.42;;
21034;SDS011;10676;50.848;3.272;2023-04-29T04:38:17;29.25;;;22.40;;
21034;SDS011;10676;50.848;3.272;2023-04-29T04:40:43;32.03;;;22.05;;
21034;SDS011;10676;50.848;3.272;2023-04-29T04:43:09;34.42;;;21.70;;
21034;SDS011;10676;50.848;3.272;2023-04-29T04:45:35;30.33;;;21.58;;
21034;SDS011;10676;50.848;3.272;2023-04-29T04:48:01;31.60;;;22.00;;
21034;SDS011;10676;50.848;3.272;2023-04-29T04:50:28;32.63;;;22.65;;
21034;SDS011;10676;50.848;3.272;2023-04-29T04:52:55;29.02;;;22.55;;
21034;SDS011;10676;50.848;3.272;2023-04-29T04:55:22;31.42;;;22.52;;
21034;SDS011;10676;50.848;3.272;2023-04-29T04:57:48;32.58;;;22.63;;
21034;SDS011;10676;50.848;3.272;2023-04-29T05:00:14;32.78;;;23.05;;
21034;SDS011;10676;50.848;3.272;2023-04-29T05:02:40;32.53;;;23.25;;
21034;SDS011;10676;50.848;3.272;2023-04-29T05:05:06;31.65;;;22.58;;
21034;SDS011;10676;50.848;3.272;2023-04-29T05:07:32;26.13;;;23.20;;
21034;SDS011;10676;50.848;3.272;2023-04-29T05:10:02;30.20;;;22.92;;
21034;SDS011;10676;50.848;3.272;2023-04-29T05:12:30;32.40;;;23.92;;
21034;SDS011;10676;50.848;3.272;2023-04-29T05:14:56;35.40;;;23.73;;
21034;SDS011;10676;50.848;3.272;2023-04-29T05:17:22;30.17;;;23.95;;
21034;SDS011;10676;50.848;3.272;2023-04-29T05:19:48;34.70;;;24.58;;
21034;SDS011;10676;50.848;3.272;2023-04-29T05:22:14;31.42;;;24.00;;
21034;SDS011;10676;50.848;3.272;2023-04-29T05:24:40;32.63;;;24.08;;
21034;SDS011;10676;50.848;3.272;2023-04-29T05:27:05;38.38;;;24.48;;
21034;SDS011;10676;50.848;3.272;2023-04-29T05:29:31;34.50;;;25.15;;
21034;SDS011;10676;50.848;3.272;2023-04-29T05:31:57;36.05;;;23.77;;
21034;SDS011;10676;50.848;3.272;2023-04-29T05:34:23;36.47;;;24.63;;
21034;SDS011;10676;50.848;3.272;2023-04-29T05:36:49;35.25;;;25.38;;
21034;SDS011;10676;50.848;3.272;2023-04-29T05:39:15;33.45;;;24.75;;
21034;SDS011;10676;50.848;3.272;2023-04-29T05:41:41;36.90;;;24.88;;
21034;SDS011;10676;50.848;3.272;2023-04-29T05:44:07;36.58;;;25.58;;
21034;SDS011;10676;50.848;3.272;2023-04-29T05:46:33;37.13;;;25.00;;
21034;SDS011;10676;50.848;3.272;2023-04-29T05:48:59;33.53;;;24.00;;
21034;SDS011;10676;50.848;3.272;2023-04-29T05:51:24;30.33;;;23.15;;
21034;SDS011;10676;50.848;3.272;2023-04-29T05:53:52;28.45;;;22.77;;
21034;SDS011;10676;50.848;3.272;2023-04-29T05:56:18;31.67;;;22.60;;
21034;SDS011;10676;50.848;3.272;2023-04-29T05:58:44;26.25;;;21.50;;
21034;SDS011;10676;50.848;3.272;2023-04-29T06:01:09;34.15;;;21.55;;
21034;SDS011;10676;50.848;3.272;2023-04-29T06:03:35;30.30;;;22.23;;
21034;SDS011;10676;50.848;3.272;2023-04-29T06:06:01;27.58;;;20.02;;
21034;SDS011;10676;50.848;3.272;2023-04-29T06:08:27;23.95;;;18.75;;
21034;SDS011;10676;50.848;3.272;2023-04-29T06:10:53;27.70;;;20.00;;
21034;SDS011;10676;50.848;3.272;2023-04-29T06:13:20;27.85;;;20.85;;
21034;SDS011;10676;50.848;3.272;2023-04-29T06:15:45;32.47;;;21.58;;
21034;SDS011;10676;50.848;3.272;2023-04-29T06:18:11;28.15;;;20.75;;
21034;SDS011;10676;50.848;3.272;2023-04-29T06:20:38;29.25;;;20.55;;
21034;SDS011;10676;50.848;3.272;2023-04-29T06:23:03;30.02;;;22.08;;
21034;SDS011;10676;50.848;3.272;2023-04-29T06:25:29;28.60;;;21.92;;
21034;SDS011;10676;50.848;3.272;2023-04-29T06:27:56;37.40;;;23.35;;
21034;SDS011;10676;50.848;3.272;2023-04-29T06:30:22;32.10;;;24.10;;
21034;SDS011;10676;50.848;3.272;2023-04-29T06:32:47;34.58;;;23.95;;
21034;SDS011;10676;50.848;3.272;2023-04-29T06:35:14;31.70;;;23.58;;
21034;SDS011;10676;50.848;3.272;2023-04-29T06:37:40;31.85;;;22.98;;
21034;SDS011;10676;50.848;3.272;2023-04-29T06:40:05;34.25;;;22.25;;
21034;SDS011;10676;50.848;3.272;2023-04-29T06:42:33;34.00;;;23.75;;
21034;SDS011;10676;50.848;3.272;2023-04-29T06:44:58;33.05;;;23.15;;
21034;SDS011;10676;50.848;3.272;2023-04-29T06:47:24;32.72;;;22.33;;
21034;SDS011;10676;50.848;3.272;2023-04-29T06:49:50;33.92;;;24.25;;
21034;SDS011;10676;50.848;3.272;2023-04-29T06:52:17;30.17;;;22.38;;
21034;SDS011;10676;50.848;3.272;2023-04-29T06:54:43;29.77;;;23.20;;
21034;SDS011;10676;50.848;3.272;2023-04-29T06:57:08;31.15;;;23.00;;
21034;SDS011;10676;50.848;3.272;2023-04-29T06:59:34;31.58;;;22.80;;
21034;SDS011;10676;50.848;3.272;2023-04-29T07:02:00;36.17;;;23.45;;
21034;SDS011;10676;50.848;3.272;2023-04-29T07:04:26;31.48;;;22.35;;
21034;SDS011;10676;50.848;3.272;2023-04-29T07:06:51;29.30;;;22.75;;
21034;SDS011;10676;50.848;3.272;2023-04-29T07:09:17;34.03;;;23.17;;
21034;SDS011;10676;50.848;3.272;2023-04-29T07:11:43;35.55;;;23.73;;
21034;SDS011;10676;50.848;3.272;2023-04-29T07:14:09;32.83;;;22.80;;
21034;SDS011;10676;50.848;3.272;2023-04-29T07:16:35;32.13;;;23.20;;
21034;SDS011;10676;50.848;3.272;2023-04-29T07:19:01;34.15;;;22.83;;
21034;SDS011;10676;50.848;3.272;2023-04-29T07:21:27;32.45;;;22.55;;
21034;SDS011;10676;50.848;3.272;2023-04-29T07:23:52;35.17;;;22.27;;
21034;SDS011;10676;50.848;3.272;2023-04-29T07:26:19;30.88;;;22.83;;
21034;SDS011;10676;50.848;3.272;2023-04-29T07:28:46;28.52;;;20.45;;
21034;SDS011;10676;50.848;3.272;2023-04-29T07:31:13;37.55;;;21.92;;
21034;SDS011;10676;50.848;3.272;2023-04-29T07:33:40;30.55;;;21.85;;
21034;SDS011;10676;50.848;3.272;2023-04-29T07:36:07;27.08;;;20.15;;
21034;SDS011;10676;50.848;3.272;2023-04-29T07:38:33;26.17;;;21.13;;
21034;SDS011;10676;50.848;3.272;2023-04-29T07:41:01;30.67;;;21.90;;
21034;SDS011;10676;50.848;3.272;2023-04-29T07:43:28;25.15;;;20.40;;
21034;SDS011;10676;50.848;3.272;2023-04-29T07:45:54;28.25;;;22.60;;
21034;SDS011;10676;50.848;3.272;2023-04-29T07:48:20;25.60;;;21.42;;
21034;SDS011;10676;50.848;3.272;2023-04-29T07:50:46;27.70;;;21.98;;
21034;SDS011;10676;50.848;3.272;2023-04-29T07:53:12;29.10;;;22.00;;
21034;SDS011;10676;50.848;3.272;2023-04-29T07:55:39;29.90;;;26.70;;
21034;SDS011;10676;50.848;3.272;2023-04-29T07:58:05;34.20;;;27.85;;
21034;SDS011;10676;50.848;3.272;2023-04-29T08:00:31;31.42;;;27.17;;
21034;SDS011;10676;50.848;3.272;2023-04-29T08:02:57;30.17;;;26.60;;
21034;SDS011;10676;50.848;3.272;2023-04-29T08:05:23;30.08;;;26.67;;
21034;SDS011;10676;50.848;3.272;2023-04-29T08:07:49;29.77;;;26.08;;
21034;SDS011;10676;50.848;3.272;2023-04-29T08:10:16;29.48;;;24.70;;
21034;SDS011;10676;50.848;3.272;2023-04-29T08:12:45;30.10;;;25.67;;
21034;SDS011;10676;50.848;3.272;2023-04-29T08:15:11;27.88;;;24.95;;
21034;SDS011;10676;50.848;3.272;2023-04-29T08:17:36;29.25;;;25.98;;
21034;SDS011;10676;50.848;3.272;2023-04-29T08:20:02;33.03;;;26.10;;
21034;SDS011;10676;50.848;3.272;2023-04-29T08:22:28;31.77;;;28.35;;
21034;SDS011;10676;50.848;3.272;2023-04-29T08:24:54;30.63;;;26.65;;
21034;SDS011;10676;50.848;3.272;2023-04-29T08:27:20;29.75;;;26.48;;
21034;SDS011;10676;50.848;3.272;2023-04-29T08:29:46;32.17;;;24.90;;
21034;SDS011;10676;50.848;3.272;2023-04-29T08:32:12;28.35;;;25.35;;
21034;SDS011;10676;50.848;3.272;2023-04-29T08:34:38;28.27;;;23.90;;
21034;SDS011;10676;50.848;3.272;2023-04-29T08:37:05;27.10;;;23.85;;
21034;SDS011;10676;50.848;3.272;2023-04-29T08:39:31;27.50;;;24.60;;
21034;SDS011;10676;50.848;3.272;2023-04-29T08:41:57;26.77;;;23.83;;
21034;SDS011;10676;50.848;3.272;2023-04-29T08:44:24;25.50;;;21.42;;
21034;SDS011;10676;50.848;3.272;2023-04-29T08:46:51;25.38;;;22.50;;
21034;SDS011;10676;50.848;3.272;2023-04-29T08:49:18;26.63;;;22.63;;
21034;SDS011;10676;50.848;3.272;2023-04-29T08:51:44;26.48;;;23.63;;
21034;SDS011;10676;50.848;3.272;2023-04-29T08:54:12;28.08;;;25.13;;
21034;SDS011;10676;50.848;3.272;2023-04-29T08:56:37;26.73;;;23.95;;
21034;SDS011;10676;50.848;3.272;2023-04-29T08:59:03;27.98;;;23.90;;
21034;SDS011;10676;50.848;3.272;2023-04-29T09:01:34;29.40;;;23.23;;
21034;SDS011;10676;50.848;3.272;2023-04-29T09:07:12;25.83;;;23.42;;
21034;SDS011;10676;50.848;3.272;2023-04-29T09:09:39;24.33;;;21.77;;
21034;SDS011;10676;50.848;3.272;2023-04-29T09:12:06;24.70;;;22.08;;
21034;SDS011;10676;50.848;3.272;2023-04-29T09:14:32;23.35;;;20.88;;
21034;SDS011;10676;50.848;3.272;2023-04-29T09:16:58;23.23;;;19.25;;
21034;SDS011;10676;50.848;3.272;2023-04-29T09:19:31;24.00;;;21.33;;
21034;SDS011;10676;50.848;3.272;2023-04-29T09:21:58;24.60;;;21.70;;
21034;SDS011;10676;50.848;3.272;2023-04-29T09:24:26;23.30;;;20.92;;
21034;SDS011;10676;50.848;3.272;2023-04-29T09:26:52;22.55;;;20.20;;
21034;SDS011;10676;50.848;3.272;2023-04-29T09:29:19;22.20;;;19.98;;
21034;SDS011;10676;50.848;3.272;2023-04-29T09:31:45;22.98;;;20.60;;
21034;SDS011;10676;50.848;3.272;2023-04-29T09:34:11;20.98;;;18.80;;
21034;SDS011;10676;50.848;3.272;2023-04-29T09:36:46;21.15;;;19.02;;
21034;SDS011;10676;50.848;3.272;2023-04-29T09:39:15;21.75;;;19.52;;
21034;SDS011;10676;50.848;3.272;2023-04-29T09:44:18;21.90;;;19.73;;
21034;SDS011;10676;50.848;3.272;2023-04-29T09:52:02;19.02;;;17.23;;
21034;SDS011;10676;50.848;3.272;2023-04-29T09:54:30;18.65;;;16.75;;
21034;SDS011;10676;50.848;3.272;2023-04-29T09:56:58;18.42;;;16.63;;
21034;SDS011;10676;50.848;3.272;2023-04-29T09:59:26;19.02;;;17.15;;
21034;SDS011;10676;50.848;3.272;2023-04-29T10:01:55;19.48;;;17.38;;
21034;SDS011;10676;50.848;3.272;2023-04-29T10:04:23;20.90;;;18.77;;
21034;SDS011;10676;50.848;3.272;2023-04-29T10:06:51;20.85;;;18.58;;
21034;SDS011;10676;50.848;3.272;2023-04-29T10:09:18;21.50;;;17.10;;
21034;SDS011;10676;50.848;3.272;2023-04-29T10:11:49;19.45;;;17.35;;
21034;SDS011;10676;50.848;3.272;2023-04-29T10:14:17;18.55;;;16.60;;
21034;SDS011;10676;50.848;3.272;2023-04-29T10:16:45;19.40;;;16.08;;
21034;SDS011;10676;50.848;3.272;2023-04-29T10:19:11;18.55;;;16.75;;
21034;SDS011;10676;50.848;3.272;2023-04-29T10:22:06;18.13;;;16.42;;
21034;SDS011;10676;50.848;3.272;2023-04-29T10:24:37;19.17;;;17.05;;
21034;SDS011;10676;50.848;3.272;2023-04-29T10:27:07;19.92;;;18.02;;
21034;SDS011;10676;50.848;3.272;2023-04-29T10:29:36;20.13;;;18.25;;
21034;SDS011;10676;50.848;3.272;2023-04-29T10:32:06;20.52;;;18.60;;
21034;SDS011;10676;50.848;3.272;2023-04-29T10:34:33;21.85;;;19.77;;
21034;SDS011;10676;50.848;3.272;2023-04-29T10:37:02;20.27;;;18.38;;
21034;SDS011;10676;50.848;3.272;2023-04-29T10:39:33;20.08;;;18.13;;
21034;SDS011;10676;50.848;3.272;2023-04-29T10:42:15;18.92;;;17.05;;
21034;SDS011;10676;50.848;3.272;2023-04-29T10:53:13;16.92;;;15.23;;
21034;SDS011;10676;50.848;3.272;2023-04-29T10:55:40;17.80;;;16.20;;
21034;SDS011;10676;50.848;3.272;2023-04-29T11:01:00;17.92;;;16.27;;
21034;SDS011;10676;50.848;3.272;2023-04-29T11:06:12;19.08;;;17.30;;
21034;SDS011;10676;50.848;3.272;2023-04-29T11:08:39;19.17;;;17.40;;
21034;SDS011;10676;50.848;3.272;2023-04-29T11:11:05;18.65;;;16.77;;
21034;SDS011;10676;50.848;3.272;2023-04-29T11:13:37;18.85;;;17.05;;
21034;SDS011;10676;50.848;3.272;2023-04-29T11:16:08;18.50;;;16.88;;
21034;SDS011;10676;50.848;3.272;2023-04-29T11:18:36;18.55;;;16.63;;
21034;SDS011;10676;50.848;3.272;2023-04-29T11:21:37;17.75;;;16.13;;
21034;SDS011;10676;50.848;3.272;2023-04-29T11:24:03;19.25;;;16.75;;
21034;SDS011;10676;50.848;3.272;2023-04-29T11:26:33;17.55;;;15.68;;
21034;SDS011;10676;50.848;3.272;2023-04-29T11:29:01;18.20;;;16.38;;
21034;SDS011;10676;50.848;3.272;2023-04-29T11:31:30;18.23;;;16.33;;
21034;SDS011;10676;50.848;3.272;2023-04-29T11:33:57;17.73;;;15.93;;
21034;SDS011;10676;50.848;3.272;2023-04-29T11:36:23;19.05;;;17.10;;
21034;SDS011;10676;50.848;3.272;2023-04-29T11:38:49;17.75;;;16.05;;
21034;SDS011;10676;50.848;3.272;2023-04-29T11:41:15;19.95;;;18.13;;
21034;SDS011;10676;50.848;3.272;2023-04-29T11:43:45;19.90;;;18.10;;
21034;SDS011;10676;50.848;3.272;2023-04-29T11:46:11;20.90;;;18.90;;
21034;SDS011;10676;50.848;3.272;2023-04-29T11:48:44;21.02;;;18.83;;
21034;SDS011;10676;50.848;3.272;2023-04-29T11:51:14;20.83;;;18.90;;
21034;SDS011;10676;50.848;3.272;2023-04-29T11:53:41;22.02;;;19.67;;
21034;SDS011;10676;50.848;3.272;2023-04-29T11:56:07;20.75;;;18.83;;
21034;SDS011;10676;50.848;3.272;2023-04-29T11:58:34;23.40;;;21.25;;
21034;SDS011;10676;50.848;3.272;2023-04-29T12:01:04;23.27;;;21.02;;
21034;SDS011;10676;50.848;3.272;2023-04-29T12:03:32;23.48;;;21.25;;
21034;SDS011;10676;50.848;3.272;2023-04-29T12:05:58;25.23;;;22.70;;
21034;SDS011;10676;50.848;3.272;2023-04-29T12:08:27;27.38;;;24.58;;
21034;SDS011;10676;50.848;3.272;2023-04-29T12:10:54;27.55;;;24.63;;
21034;SDS011;10676;50.848;3.272;2023-04-29T12:13:22;25.48;;;22.77;;
21034;SDS011;10676;50.848;3.272;2023-04-29T12:15:50;24.90;;;22.33;;
21034;SDS011;10676;50.848;3.272;2023-04-29T12:18:17;25.73;;;23.02;;
21034;SDS011;10676;50.848;3.272;2023-04-29T12:20:44;22.75;;;20.60;;
21034;SDS011;10676;50.848;3.272;2023-04-29T12:23:15;25.42;;;22.83;;
21034;SDS011;10676;50.848;3.272;2023-04-29T12:25:50;25.77;;;23.02;;
21034;SDS011;10676;50.848;3.272;2023-04-29T12:28:17;27.13;;;22.67;;
21034;SDS011;10676;50.848;3.272;2023-04-29T12:30:44;29.67;;;24.38;;
21034;SDS011;10676;50.848;3.272;2023-04-29T12:33:24;26.13;;;23.33;;
21034;SDS011;10676;50.848;3.272;2023-04-29T12:35:51;26.08;;;23.02;;
21034;SDS011;10676;50.848;3.272;2023-04-29T12:40:54;22.30;;;20.17;;
21034;SDS011;10676;50.848;3.272;2023-04-29T12:43:27;21.58;;;19.42;;
21034;SDS011;10676;50.848;3.272;2023-04-29T12:45:57;20.85;;;18.70;;
21034;SDS011;10676;50.848;3.272;2023-04-29T12:48:36;23.70;;;21.15;;
21034;SDS011;10676;50.848;3.272;2023-04-29T12:51:08;23.33;;;21.02;;
21034;SDS011;10676;50.848;3.272;2023-04-29T12:53:34;25.67;;;23.17;;
21034;SDS011;10676;50.848;3.272;2023-04-29T12:56:00;26.70;;;23.85;;
21034;SDS011;10676;50.848;3.272;2023-04-29T12:58:29;25.40;;;22.73;;
21034;SDS011;10676;50.848;3.272;2023-04-29T13:00:56;28.42;;;25.25;;
21034;SDS011;10676;50.848;3.272;2023-04-29T13:03:22;29.30;;;24.88;;
21034;SDS011;10676;50.848;3.272;2023-04-29T13:05:51;27.83;;;24.60;;
21034;SDS011;10676;50.848;3.272;2023-04-29T13:08:18;30.63;;;25.17;;
21034;SDS011;10676;50.848;3.272;2023-04-29T13:10:45;29.60;;;24.60;;
21034;SDS011;10676;50.848;3.272;2023-04-29T13:13:10;28.83;;;24.63;;
21034;SDS011;10676;50.848;3.272;2023-04-29T13:15:36;28.10;;;25.02;;
21034;SDS011;10676;50.848;3.272;2023-04-29T13:18:05;28.45;;;25.15;;
21034;SDS011;10676;50.848;3.272;2023-04-29T13:20:31;29.40;;;25.35;;
21034;SDS011;10676;50.848;3.272;2023-04-29T13:22:57;29.95;;;26.40;;
21034;SDS011;10676;50.848;3.272;2023-04-29T13:25:23;30.52;;;26.52;;
21034;SDS011;10676;50.848;3.272;2023-04-29T13:27:49;31.77;;;28.38;;
21034;SDS011;10676;50.848;3.272;2023-04-29T13:30:14;32.80;;;28.27;;
21034;SDS011;10676;50.848;3.272;2023-04-29T13:32:40;30.67;;;26.90;;
21034;SDS011;10676;50.848;3.272;2023-04-29T13:35:07;31.70;;;27.90;;
21034;SDS011;10676;50.848;3.272;2023-04-29T13:37:33;32.75;;;29.15;;
21034;SDS011;10676;50.848;3.272;2023-04-29T13:39:59;34.17;;;29.90;;
21034;SDS011;10676;50.848;3.272;2023-04-29T13:42:24;31.98;;;28.48;;
21034;SDS011;10676;50.848;3.272;2023-04-29T13:44:50;30.55;;;27.25;;
21034;SDS011;10676;50.848;3.272;2023-04-29T13:47:17;31.13;;;27.83;;
21034;SDS011;10676;50.848;3.272;2023-04-29T13:49:43;32.13;;;28.13;;
21034;SDS011;10676;50.848;3.272;2023-04-29T13:52:09;30.58;;;27.00;;
21034;SDS011;10676;50.848;3.272;2023-04-29T13:54:35;28.60;;;25.60;;
21034;SDS011;10676;50.848;3.272;2023-04-29T13:57:01;27.95;;;25.02;;
21034;SDS011;10676;50.848;3.272;2023-04-29T13:59:31;31.02;;;27.70;;
21034;SDS011;10676;50.848;3.272;2023-04-29T14:01:57;32.42;;;28.13;;
21034;SDS011;10676;50.848;3.272;2023-04-29T14:04:24;33.70;;;28.63;;
21034;SDS011;10676;50.848;3.272;2023-04-29T14:06:50;29.67;;;26.50;;
21034;SDS011;10676;50.848;3.272;2023-04-29T14:09:16;32.95;;;26.65;;
21034;SDS011;10676;50.848;3.272;2023-04-29T14:11:42;28.13;;;24.98;;
21034;SDS011;10676;50.848;3.272;2023-04-29T14:14:11;27.10;;;24.38;;
21034;SDS011;10676;50.848;3.272;2023-04-29T14:16:37;27.83;;;24.45;;
21034;SDS011;10676;50.848;3.272;2023-04-29T14:19:02;26.08;;;23.02;;
21034;SDS011;10676;50.848;3.272;2023-04-29T14:21:28;26.67;;;23.98;;
21034;SDS011;10676;50.848;3.272;2023-04-29T14:23:57;26.30;;;23.60;;
21034;SDS011;10676;50.848;3.272;2023-04-29T14:26:23;26.33;;;23.52;;
21034;SDS011;10676;50.848;3.272;2023-04-29T14:28:49;24.13;;;21.52;;
21034;SDS011;10676;50.848;3.272;2023-04-29T14:31:22;28.00;;;25.13;;
21034;SDS011;10676;50.848;3.272;2023-04-29T14:33:48;26.30;;;23.52;;
21034;SDS011;10676;50.848;3.272;2023-04-29T14:36:15;27.25;;;23.75;;
21034;SDS011;10676;50.848;3.272;2023-04-29T14:38:41;29.08;;;25.95;;
21034;SDS011;10676;50.848;3.272;2023-04-29T14:41:06;30.33;;;26.98;;
21034;SDS011;10676;50.848;3.272;2023-04-29T14:43:32;31.33;;;26.55;;
21034;SDS011;10676;50.848;3.272;2023-04-29T14:45:59;29.05;;;26.05;;
21034;SDS011;10676;50.848;3.272;2023-04-29T14:48:25;27.77;;;25.17;;
21034;SDS011;10676;50.848;3.272;2023-04-29T14:50:50;26.70;;;23.98;;
21034;SDS011;10676;50.848;3.272;2023-04-29T14:53:16;25.55;;;22.95;;
21034;SDS011;10676;50.848;3.272;2023-04-29T14:55:42;28.55;;;25.65;;
21034;SDS011;10676;50.848;3.272;2023-04-29T14:58:07;25.52;;;23.10;;
21034;SDS011;10676;50.848;3.272;2023-04-29T15:00:34;27.83;;;24.92;;
21034;SDS011;10676;50.848;3.272;2023-04-29T15:03:00;27.17;;;24.38;;
21034;SDS011;10676;50.848;3.272;2023-04-29T15:05:26;29.75;;;26.75;;
21034;SDS011;10676;50.848;3.272;2023-04-29T15:07:54;27.90;;;24.80;;